PWSweather.com
Personal Weather Stations
Station Observations
SPARKSRC
St. Petersburg, FL 33716

St. Petersburg, FL 33716

Lat: 27.876101, Lon: -82.657194

Elevation: 13

Station Type: Zephyr PWS-1000TD

High Low Average
Temperature 91.6°F33.1°F 61.5°F16.4°F 73.9°F23.3°F
Dew Point 69.9°F21.1°F 54.1°F12.3°F 61.5°F16.4°F
Winds 11.4 mph SSW18.3 mph SSW Calm Calm 4.1 mph 6.6 mph
Wind Gusts 17.4 mph28.0 mph 1.6 mph2.6 mph 7.6 mph12.2 mph
Humidity 79% 48% 66%
Pressure 30.19 in1022.40 in 30.09 in1019.00 in -
Precipitation 0.00 in0.00 in - -
Hour Temp Dew Point Humidity Winds Wind Gusts Pressure Precip Precip Rate Daily Precip Total
12:00 AM 67.3°F19.6°C 58.4°F14.7°C 73% 6.0 mph SE9.7 kmh SE 9.2 mph14.8 kmh 30.15 in1021.0 mb 0.00 in0.0 mm 0.00 in0.0 mm 0.00 in0.0 mm
12:05 AM 67.3°F19.6°C 58.4°F14.7°C 73% 5.4 mph ESE8.7 kmh ESE 9.2 mph14.8 kmh 30.15 in1021.0 mb 0.00 in0.0 mm 0.00 in0.0 mm 0.00 in0.0 mm
12:10 AM 67.1°F19.5°C 58.2°F14.6°C 73% 4.5 mph E7.2 kmh E 9.2 mph14.8 kmh 30.15 in1021.0 mb 0.00 in0.0 mm 0.00 in0.0 mm 0.00 in0.0 mm
12:15 AM 66.9°F19.4°C 58.0°F14.4°C 73% 5.4 mph ESE8.7 kmh ESE 10.7 mph17.2 kmh 30.15 in1021.0 mb 0.00 in0.0 mm 0.00 in0.0 mm 0.00 in0.0 mm
12:20 AM 66.9°F19.4°C 58.0°F14.4°C 73% 3.8 mph SE6.1 kmh SE 10.7 mph17.2 kmh 30.15 in1021.0 mb 0.00 in0.0 mm 0.00 in0.0 mm 0.00 in0.0 mm
12:25 AM 66.7°F19.3°C 58.2°F14.6°C 74% 5.4 mph ESE8.7 kmh ESE 9.8 mph15.8 kmh 30.15 in1021.0 mb 0.00 in0.0 mm 0.00 in0.0 mm 0.00 in0.0 mm
12:30 AM 66.7°F19.3°C 58.2°F14.6°C 74% 6.9 mph E11.1 kmh E 9.8 mph15.8 kmh 30.15 in1021.0 mb 0.00 in0.0 mm 0.00 in0.0 mm 0.00 in0.0 mm
12:35 AM 66.7°F19.3°C 58.2°F14.6°C 74% 4.5 mph E7.2 kmh E 11.4 mph18.3 kmh 30.15 in1021.0 mb 0.00 in0.0 mm 0.00 in0.0 mm 0.00 in0.0 mm
12:40 AM 66.7°F19.3°C 58.2°F14.6°C 74% 7.6 mph E12.2 kmh E 11.4 mph18.3 kmh 30.15 in1021.0 mb 0.00 in0.0 mm 0.00 in0.0 mm 0.00 in0.0 mm
12:45 AM 66.6°F19.2°C 58.0°F14.4°C 74% 6.0 mph ESE9.7 kmh ESE 13.6 mph21.9 kmh 30.15 in1021.0 mb 0.00 in0.0 mm 0.00 in0.0 mm 0.00 in0.0 mm
12:50 AM 66.6°F19.2°C 58.0°F14.4°C 74% 6.0 mph SE9.7 kmh SE 13.6 mph21.9 kmh 30.15 in1021.0 mb 0.00 in0.0 mm 0.00 in0.0 mm 0.00 in0.0 mm
12:55 AM 66.6°F19.2°C 58.0°F14.4°C 74% 4.5 mph ESE7.2 kmh ESE 9.2 mph14.8 kmh 30.14 in1020.7 mb 0.00 in0.0 mm 0.00 in0.0 mm 0.00 in0.0 mm
01:00 AM 66.6°F19.2°C 58.4°F14.7°C 75% 6.0 mph ESE9.7 kmh ESE 8.3 mph13.4 kmh 30.14 in1020.7 mb 0.00 in0.0 mm 0.00 in0.0 mm 0.00 in0.0 mm
01:05 AM 66.6°F19.2°C 58.4°F14.7°C 75% 4.5 mph SE7.2 kmh SE 8.3 mph13.4 kmh 30.14 in1020.7 mb 0.00 in0.0 mm 0.00 in0.0 mm 0.00 in0.0 mm
01:10 AM 66.6°F19.2°C 58.4°F14.7°C 75% 4.5 mph SE7.2 kmh SE 8.3 mph13.4 kmh 30.15 in1021.0 mb 0.00 in0.0 mm 0.00 in0.0 mm 0.00 in0.0 mm
01:15 AM 66.6°F19.2°C 58.4°F14.7°C 75% 3.8 mph SE6.1 kmh SE 7.6 mph12.2 kmh 30.14 in1020.7 mb 0.00 in0.0 mm 0.00 in0.0 mm 0.00 in0.0 mm
01:20 AM 66.6°F19.2°C 58.4°F14.7°C 75% 3.8 mph ESE6.1 kmh ESE 9.2 mph14.8 kmh 30.14 in1020.7 mb 0.00 in0.0 mm 0.00 in0.0 mm 0.00 in0.0 mm
01:25 AM 66.7°F19.3°C 58.6°F14.8°C 75% 3.8 mph ESE6.1 kmh ESE 9.2 mph14.8 kmh 30.15 in1021.0 mb 0.00 in0.0 mm 0.00 in0.0 mm 0.00 in0.0 mm
01:30 AM 66.9°F19.4°C 58.8°F14.9°C 75% 3.8 mph SE6.1 kmh SE 7.6 mph12.2 kmh 30.14 in1020.7 mb 0.00 in0.0 mm 0.00 in0.0 mm 0.00 in0.0 mm
01:35 AM 67.1°F19.5°C 58.6°F14.8°C 74% 3.8 mph SE6.1 kmh SE 7.6 mph12.2 kmh 30.14 in1020.7 mb 0.00 in0.0 mm 0.00 in0.0 mm 0.00 in0.0 mm
01:40 AM 67.1°F19.5°C 58.6°F14.8°C 74% 8.3 mph ESE13.4 kmh ESE 10.7 mph17.2 kmh 30.14 in1020.7 mb 0.00 in0.0 mm 0.00 in0.0 mm 0.00 in0.0 mm
01:45 AM 67.1°F19.5°C 58.6°F14.8°C 74% 6.9 mph ESE11.1 kmh ESE 11.4 mph18.3 kmh 30.14 in1020.7 mb 0.00 in0.0 mm 0.00 in0.0 mm 0.00 in0.0 mm
01:50 AM 67.3°F19.6°C 58.7°F14.8°C 74% 6.9 mph ESE11.1 kmh ESE 11.4 mph18.3 kmh 30.14 in1020.7 mb 0.00 in0.0 mm 0.00 in0.0 mm 0.00 in0.0 mm
01:55 AM 67.3°F19.6°C 58.7°F14.8°C 74% 5.4 mph ESE8.7 kmh ESE 10.7 mph17.2 kmh 30.14 in1020.7 mb 0.00 in0.0 mm 0.00 in0.0 mm 0.00 in0.0 mm
02:00 AM 67.1°F19.5°C 58.6°F14.8°C 74% 5.4 mph ESE8.7 kmh ESE 9.8 mph15.8 kmh 30.14 in1020.7 mb 0.00 in0.0 mm 0.00 in0.0 mm 0.00 in0.0 mm
02:05 AM 66.9°F19.4°C 58.4°F14.7°C 74% 6.9 mph ESE11.1 kmh ESE 10.7 mph17.2 kmh 30.14 in1020.7 mb 0.00 in0.0 mm 0.00 in0.0 mm 0.00 in0.0 mm
02:10 AM 66.7°F19.3°C 58.6°F14.8°C 75% 4.5 mph ESE7.2 kmh ESE 10.7 mph17.2 kmh 30.14 in1020.7 mb 0.00 in0.0 mm 0.00 in0.0 mm 0.00 in0.0 mm
02:15 AM 66.4°F19.1°C 58.2°F14.6°C 75% 5.4 mph ESE8.7 kmh ESE 9.8 mph15.8 kmh 30.14 in1020.7 mb 0.00 in0.0 mm 0.00 in0.0 mm 0.00 in0.0 mm
02:20 AM 66.4°F19.1°C 58.2°F14.6°C 75% 5.4 mph ESE8.7 kmh ESE 9.8 mph15.8 kmh 30.14 in1020.7 mb 0.00 in0.0 mm 0.00 in0.0 mm 0.00 in0.0 mm
02:25 AM 66.2°F19.0°C 58.1°F14.5°C 75% 4.5 mph ESE7.2 kmh ESE 8.3 mph13.4 kmh 30.14 in1020.7 mb 0.00 in0.0 mm 0.00 in0.0 mm 0.00 in0.0 mm
02:30 AM 65.8°F18.8°C 57.7°F14.3°C 75% 3.8 mph SE6.1 kmh SE 8.3 mph13.4 kmh 30.14 in1020.7 mb 0.00 in0.0 mm 0.00 in0.0 mm 0.00 in0.0 mm
02:35 AM 65.8°F18.8°C 58.1°F14.5°C 76% 5.4 mph SE8.7 kmh SE 8.3 mph13.4 kmh 30.14 in1020.7 mb 0.00 in0.0 mm 0.00 in0.0 mm 0.00 in0.0 mm
02:40 AM 65.5°F18.6°C 57.7°F14.3°C 76% 4.5 mph ESE7.2 kmh ESE 8.3 mph13.4 kmh 30.14 in1020.7 mb 0.00 in0.0 mm 0.00 in0.0 mm 0.00 in0.0 mm
02:45 AM 65.7°F18.7°C 57.9°F14.4°C 76% 3.8 mph SE6.1 kmh SE 6.9 mph11.1 kmh 30.14 in1020.7 mb 0.00 in0.0 mm 0.00 in0.0 mm 0.00 in0.0 mm
02:50 AM 65.3°F18.5°C 57.6°F14.2°C 76% 2.2 mph SE3.5 kmh SE 6.0 mph9.7 kmh 30.14 in1020.7 mb 0.00 in0.0 mm 0.00 in0.0 mm 0.00 in0.0 mm
02:55 AM 65.1°F18.4°C 57.4°F14.1°C 76% 3.1 mph ESE5.0 kmh ESE 6.0 mph9.7 kmh 30.14 in1020.7 mb 0.00 in0.0 mm 0.00 in0.0 mm 0.00 in0.0 mm
03:00 AM 65.1°F18.4°C 57.4°F14.1°C 76% 3.1 mph ESE5.0 kmh ESE 6.0 mph9.7 kmh 30.14 in1020.7 mb 0.00 in0.0 mm 0.00 in0.0 mm 0.00 in0.0 mm
03:05 AM 64.9°F18.3°C 57.2°F14.0°C 76% 2.2 mph SE3.5 kmh SE 6.0 mph9.7 kmh 30.14 in1020.7 mb 0.00 in0.0 mm 0.00 in0.0 mm 0.00 in0.0 mm
03:10 AM 64.9°F18.3°C 57.2°F14.0°C 76% 3.1 mph SE5.0 kmh SE 5.4 mph8.7 kmh 30.14 in1020.7 mb 0.00 in0.0 mm 0.00 in0.0 mm 0.00 in0.0 mm
03:15 AM 64.6°F18.1°C 56.9°F13.8°C 76% 2.2 mph ESE3.5 kmh ESE 5.4 mph8.7 kmh 30.14 in1020.7 mb 0.00 in0.0 mm 0.00 in0.0 mm 0.00 in0.0 mm
03:20 AM 64.4°F18.0°C 56.7°F13.7°C 76% 2.2 mph E3.5 kmh E 3.8 mph6.1 kmh 30.14 in1020.7 mb 0.00 in0.0 mm 0.00 in0.0 mm 0.00 in0.0 mm
03:25 AM 64.4°F18.0°C 56.7°F13.7°C 76% 2.2 mph E3.5 kmh E 3.8 mph6.1 kmh 30.14 in1020.7 mb 0.00 in0.0 mm 0.00 in0.0 mm 0.00 in0.0 mm
03:30 AM 64.2°F17.9°C 56.5°F13.6°C 76% 3.1 mph E5.0 kmh E 3.8 mph6.1 kmh 30.14 in1020.7 mb 0.00 in0.0 mm 0.00 in0.0 mm 0.00 in0.0 mm
03:35 AM 64.2°F17.9°C 56.5°F13.6°C 76% 3.1 mph E5.0 kmh E 4.5 mph7.2 kmh 30.13 in1020.3 mb 0.00 in0.0 mm 0.00 in0.0 mm 0.00 in0.0 mm
03:40 AM 64.2°F17.9°C 56.5°F13.6°C 76% 2.2 mph E3.5 kmh E 4.5 mph7.2 kmh 30.13 in1020.3 mb 0.00 in0.0 mm 0.00 in0.0 mm 0.00 in0.0 mm
03:45 AM 64.0°F17.8°C 56.3°F13.5°C 76% 3.1 mph E5.0 kmh E 4.5 mph7.2 kmh 30.14 in1020.7 mb 0.00 in0.0 mm 0.00 in0.0 mm 0.00 in0.0 mm
03:50 AM 64.0°F17.8°C 56.3°F13.5°C 76% 1.6 mph E2.6 kmh E 4.5 mph7.2 kmh 30.13 in1020.3 mb 0.00 in0.0 mm 0.00 in0.0 mm 0.00 in0.0 mm
03:55 AM 63.9°F17.7°C 56.2°F13.4°C 76% 2.2 mph E3.5 kmh E 3.8 mph6.1 kmh 30.13 in1020.3 mb 0.00 in0.0 mm 0.00 in0.0 mm 0.00 in0.0 mm
04:00 AM 63.9°F17.7°C 56.2°F13.4°C 76% 2.2 mph ESE3.5 kmh ESE 3.8 mph6.1 kmh 30.14 in1020.7 mb 0.00 in0.0 mm 0.00 in0.0 mm 0.00 in0.0 mm
04:05 AM 63.7°F17.6°C 56.0°F13.3°C 76% 2.2 mph E3.5 kmh E 3.8 mph6.1 kmh 30.13 in1020.3 mb 0.00 in0.0 mm 0.00 in0.0 mm 0.00 in0.0 mm
04:10 AM 63.7°F17.6°C 56.0°F13.3°C 76% 2.2 mph E3.5 kmh E 4.5 mph7.2 kmh 30.13 in1020.3 mb 0.00 in0.0 mm 0.00 in0.0 mm 0.00 in0.0 mm
04:15 AM 63.7°F17.6°C 56.0°F13.3°C 76% 2.2 mph ESE3.5 kmh ESE 4.5 mph7.2 kmh 30.12 in1020.0 mb 0.00 in0.0 mm 0.00 in0.0 mm 0.00 in0.0 mm
04:20 AM 63.7°F17.6°C 56.0°F13.3°C 76% 3.1 mph ESE5.0 kmh ESE 4.5 mph7.2 kmh 30.12 in1020.0 mb 0.00 in0.0 mm 0.00 in0.0 mm 0.00 in0.0 mm
04:25 AM 63.5°F17.5°C 55.8°F13.2°C 76% 2.2 mph E3.5 kmh E 4.5 mph7.2 kmh 30.12 in1020.0 mb 0.00 in0.0 mm 0.00 in0.0 mm 0.00 in0.0 mm
04:30 AM 63.5°F17.5°C 55.8°F13.2°C 76% 2.2 mph E3.5 kmh E 4.5 mph7.2 kmh 30.12 in1020.0 mb 0.00 in0.0 mm 0.00 in0.0 mm 0.00 in0.0 mm
04:35 AM 63.5°F17.5°C 56.2°F13.4°C 77% 2.2 mph E3.5 kmh E 3.8 mph6.1 kmh 30.12 in1020.0 mb 0.00 in0.0 mm 0.00 in0.0 mm 0.00 in0.0 mm
04:40 AM 63.5°F17.5°C 56.2°F13.4°C 77% 2.2 mph E3.5 kmh E 3.8 mph6.1 kmh 30.12 in1020.0 mb 0.00 in0.0 mm 0.00 in0.0 mm 0.00 in0.0 mm
04:45 AM 63.5°F17.5°C 56.2°F13.4°C 77% 2.2 mph E3.5 kmh E 3.8 mph6.1 kmh 30.13 in1020.3 mb 0.00 in0.0 mm 0.00 in0.0 mm 0.00 in0.0 mm
04:50 AM 63.5°F17.5°C 56.2°F13.4°C 77% 2.2 mph E3.5 kmh E 3.8 mph6.1 kmh 30.12 in1020.0 mb 0.00 in0.0 mm 0.00 in0.0 mm 0.00 in0.0 mm
04:55 AM 63.5°F17.5°C 55.8°F13.2°C 76% 2.2 mph ESE3.5 kmh ESE 3.8 mph6.1 kmh 30.13 in1020.3 mb 0.00 in0.0 mm 0.00 in0.0 mm 0.00 in0.0 mm
05:00 AM 63.3°F17.4°C 55.6°F13.1°C 76% 1.6 mph ESE2.6 kmh ESE 3.8 mph6.1 kmh 30.12 in1020.0 mb 0.00 in0.0 mm 0.00 in0.0 mm 0.00 in0.0 mm
05:05 AM 63.3°F17.4°C 55.6°F13.1°C 76% 0.7 mph SE1.1 kmh SE 3.8 mph6.1 kmh 30.12 in1020.0 mb 0.00 in0.0 mm 0.00 in0.0 mm 0.00 in0.0 mm
05:10 AM 63.5°F17.5°C 55.8°F13.2°C 76% 0.7 mph SE1.1 kmh SE 3.1 mph5.0 kmh 30.12 in1020.0 mb 0.00 in0.0 mm 0.00 in0.0 mm 0.00 in0.0 mm
05:15 AM 63.3°F17.4°C 55.6°F13.1°C 76% 0.7 mph SE1.1 kmh SE 2.2 mph3.5 kmh 30.13 in1020.3 mb 0.00 in0.0 mm 0.00 in0.0 mm 0.00 in0.0 mm
05:20 AM 63.1°F17.3°C 55.5°F13.1°C 76% 0.7 mph SSE1.1 kmh SSE 2.2 mph3.5 kmh 30.14 in1020.7 mb 0.00 in0.0 mm 0.00 in0.0 mm 0.00 in0.0 mm
05:25 AM 63.1°F17.3°C 55.5°F13.1°C 76% 0.7 mph S1.1 kmh S 2.2 mph3.5 kmh 30.14 in1020.7 mb 0.00 in0.0 mm 0.00 in0.0 mm 0.00 in0.0 mm
05:30 AM 63.0°F17.2°C 55.3°F12.9°C 76% 1.6 mph SE2.6 kmh SE 3.1 mph5.0 kmh 30.14 in1020.7 mb 0.00 in0.0 mm 0.00 in0.0 mm 0.00 in0.0 mm
05:35 AM 63.0°F17.2°C 55.3°F12.9°C 76% 0.7 mph SSE1.1 kmh SSE 3.1 mph5.0 kmh 30.14 in1020.7 mb 0.00 in0.0 mm 0.00 in0.0 mm 0.00 in0.0 mm
05:40 AM 63.0°F17.2°C 55.3°F12.9°C 76% 1.6 mph S2.6 kmh S 3.1 mph5.0 kmh 30.14 in1020.7 mb 0.00 in0.0 mm 0.00 in0.0 mm 0.00 in0.0 mm
05:45 AM 62.8°F17.1°C 55.1°F12.8°C 76% 1.6 mph S2.6 kmh S 3.1 mph5.0 kmh 30.14 in1020.7 mb 0.00 in0.0 mm 0.00 in0.0 mm 0.00 in0.0 mm
05:50 AM 62.6°F17.0°C 54.9°F12.7°C 76% 0.7 mph S1.1 kmh S 3.1 mph5.0 kmh 30.14 in1020.7 mb 0.00 in0.0 mm 0.00 in0.0 mm 0.00 in0.0 mm
05:55 AM 62.6°F17.0°C 54.9°F12.7°C 76% Calm Calm 2.2 mph3.5 kmh 30.14 in1020.7 mb 0.00 in0.0 mm 0.00 in0.0 mm 0.00 in0.0 mm
06:00 AM 62.4°F16.9°C 54.8°F12.7°C 76% 0.7 mph S1.1 kmh S 1.6 mph2.6 kmh 30.14 in1020.7 mb 0.00 in0.0 mm 0.00 in0.0 mm 0.00 in0.0 mm
06:05 AM 62.2°F16.8°C 54.6°F12.6°C 76% Calm Calm 1.6 mph2.6 kmh 30.14 in1020.7 mb 0.00 in0.0 mm 0.00 in0.0 mm 0.00 in0.0 mm
06:10 AM 62.1°F16.7°C 54.4°F12.4°C 76% Calm Calm 1.6 mph2.6 kmh 30.14 in1020.7 mb 0.00 in0.0 mm 0.00 in0.0 mm 0.00 in0.0 mm
06:15 AM 62.1°F16.7°C 54.4°F12.4°C 76% 0.7 mph SE1.1 kmh SE 2.2 mph3.5 kmh 30.14 in1020.7 mb 0.00 in0.0 mm 0.00 in0.0 mm 0.00 in0.0 mm
06:20 AM 61.9°F16.6°C 54.2°F12.3°C 76% 1.6 mph SE2.6 kmh SE 2.2 mph3.5 kmh 30.14 in1020.7 mb 0.00 in0.0 mm 0.00 in0.0 mm 0.00 in0.0 mm
06:25 AM 61.9°F16.6°C 54.6°F12.6°C 77% 1.6 mph SE2.6 kmh SE 2.2 mph3.5 kmh 30.14 in1020.7 mb 0.00 in0.0 mm 0.00 in0.0 mm 0.00 in0.0 mm
06:30 AM 61.7°F16.5°C 54.1°F12.3°C 76% 1.6 mph ESE2.6 kmh ESE 3.1 mph5.0 kmh 30.14 in1020.7 mb 0.00 in0.0 mm 0.00 in0.0 mm 0.00 in0.0 mm
06:35 AM 61.7°F16.5°C 54.1°F12.3°C 76% 0.7 mph E1.1 kmh E 3.1 mph5.0 kmh 30.14 in1020.7 mb 0.00 in0.0 mm 0.00 in0.0 mm 0.00 in0.0 mm
06:40 AM 61.9°F16.6°C 54.2°F12.3°C 76% 0.7 mph E1.1 kmh E 3.1 mph5.0 kmh 30.14 in1020.7 mb 0.00 in0.0 mm 0.00 in0.0 mm 0.00 in0.0 mm
06:45 AM 61.7°F16.5°C 54.1°F12.3°C 76% 0.7 mph E1.1 kmh E 3.1 mph5.0 kmh 30.14 in1020.7 mb 0.00 in0.0 mm 0.00 in0.0 mm 0.00 in0.0 mm
06:50 AM 61.9°F16.6°C 54.2°F12.3°C 76% 1.6 mph ENE2.6 kmh ENE 3.1 mph5.0 kmh 30.14 in1020.7 mb 0.00 in0.0 mm 0.00 in0.0 mm 0.00 in0.0 mm
06:55 AM 61.7°F16.5°C 54.4°F12.4°C 77% 2.2 mph ENE3.5 kmh ENE 3.1 mph5.0 kmh 30.14 in1020.7 mb 0.00 in0.0 mm 0.00 in0.0 mm 0.00 in0.0 mm
07:00 AM 61.9°F16.6°C 54.6°F12.6°C 77% 2.2 mph E3.5 kmh E 3.8 mph6.1 kmh 30.14 in1020.7 mb 0.00 in0.0 mm 0.00 in0.0 mm 0.00 in0.0 mm
07:05 AM 61.7°F16.5°C 54.4°F12.4°C 77% 0.7 mph ENE1.1 kmh ENE 3.8 mph6.1 kmh 30.15 in1021.0 mb 0.00 in0.0 mm 0.00 in0.0 mm 0.00 in0.0 mm
07:10 AM 61.5°F16.4°C 54.3°F12.4°C 77% 0.7 mph NE1.1 kmh NE 3.8 mph6.1 kmh 30.14 in1020.7 mb 0.00 in0.0 mm 0.00 in0.0 mm 0.00 in0.0 mm
07:15 AM 61.5°F16.4°C 54.6°F12.6°C 78% 1.6 mph ENE2.6 kmh ENE 3.1 mph5.0 kmh 30.14 in1020.7 mb 0.00 in0.0 mm 0.00 in0.0 mm 0.00 in0.0 mm
07:20 AM 61.5°F16.4°C 54.6°F12.6°C 78% 2.2 mph E3.5 kmh E 3.1 mph5.0 kmh 30.14 in1020.7 mb 0.00 in0.0 mm 0.00 in0.0 mm 0.00 in0.0 mm
07:25 AM 61.5°F16.4°C 54.6°F12.6°C 78% 1.6 mph E2.6 kmh E 3.1 mph5.0 kmh 30.14 in1020.7 mb 0.00 in0.0 mm 0.00 in0.0 mm 0.00 in0.0 mm
07:30 AM 61.5°F16.4°C 54.6°F12.6°C 78% 2.2 mph E3.5 kmh E 3.1 mph5.0 kmh 30.15 in1021.0 mb 0.00 in0.0 mm 0.00 in0.0 mm 0.00 in0.0 mm
07:35 AM 61.5°F16.4°C 54.6°F12.6°C 78% 1.6 mph ENE2.6 kmh ENE 3.8 mph6.1 kmh 30.15 in1021.0 mb 0.00 in0.0 mm 0.00 in0.0 mm 0.00 in0.0 mm
07:40 AM 61.7°F16.5°C 54.8°F12.7°C 78% 1.6 mph NE2.6 kmh NE 3.8 mph6.1 kmh 30.15 in1021.0 mb 0.00 in0.0 mm 0.00 in0.0 mm 0.00 in0.0 mm
07:45 AM 61.7°F16.5°C 54.8°F12.7°C 78% 2.2 mph ENE3.5 kmh ENE 3.1 mph5.0 kmh 30.15 in1021.0 mb 0.00 in0.0 mm 0.00 in0.0 mm 0.00 in0.0 mm
07:50 AM 61.7°F16.5°C 55.1°F12.8°C 79% 1.6 mph E2.6 kmh E 3.1 mph5.0 kmh 30.15 in1021.0 mb 0.00 in0.0 mm 0.00 in0.0 mm 0.00 in0.0 mm
07:55 AM 61.9°F16.6°C 55.0°F12.8°C 78% 0.7 mph E1.1 kmh E 3.1 mph5.0 kmh 30.15 in1021.0 mb 0.00 in0.0 mm 0.00 in0.0 mm 0.00 in0.0 mm
08:00 AM 62.8°F17.1°C 55.8°F13.2°C 78% 0.7 mph E1.1 kmh E 2.2 mph3.5 kmh 30.15 in1021.0 mb 0.00 in0.0 mm 0.00 in0.0 mm 0.00 in0.0 mm
08:05 AM 63.7°F17.6°C 56.4°F13.6°C 77% 2.2 mph ENE3.5 kmh ENE 3.1 mph5.0 kmh 30.16 in1021.3 mb 0.00 in0.0 mm 0.00 in0.0 mm 0.00 in0.0 mm
08:10 AM 64.0°F17.8°C 56.7°F13.7°C 77% 2.2 mph ENE3.5 kmh ENE 3.8 mph6.1 kmh 30.15 in1021.0 mb 0.00 in0.0 mm 0.00 in0.0 mm 0.00 in0.0 mm
08:15 AM 64.2°F17.9°C 56.5°F13.6°C 76% 3.1 mph ENE5.0 kmh ENE 3.8 mph6.1 kmh 30.16 in1021.3 mb 0.00 in0.0 mm 0.00 in0.0 mm 0.00 in0.0 mm
08:20 AM 64.0°F17.8°C 56.7°F13.7°C 77% 1.6 mph ENE2.6 kmh ENE 3.8 mph6.1 kmh 30.16 in1021.3 mb 0.00 in0.0 mm 0.00 in0.0 mm 0.00 in0.0 mm
08:25 AM 64.9°F18.3°C 57.6°F14.2°C 77% 1.6 mph E2.6 kmh E 3.8 mph6.1 kmh 30.16 in1021.3 mb 0.00 in0.0 mm 0.00 in0.0 mm 0.00 in0.0 mm
08:30 AM 66.7°F19.3°C 59.3°F15.2°C 77% 1.6 mph E2.6 kmh E 3.8 mph6.1 kmh 30.16 in1021.3 mb 0.00 in0.0 mm 0.00 in0.0 mm 0.00 in0.0 mm
08:35 AM 68.4°F20.2°C 60.2°F15.7°C 75% 4.5 mph E7.2 kmh E 6.0 mph9.7 kmh 30.16 in1021.3 mb 0.00 in0.0 mm 0.00 in0.0 mm 0.00 in0.0 mm
08:40 AM 69.4°F20.8°C 60.8°F16.0°C 74% 4.5 mph E7.2 kmh E 6.9 mph11.1 kmh 30.16 in1021.3 mb 0.00 in0.0 mm 0.00 in0.0 mm 0.00 in0.0 mm
08:45 AM 70.7°F21.5°C 61.3°F16.3°C 72% 3.8 mph SE6.1 kmh SE 7.6 mph12.2 kmh 30.16 in1021.3 mb 0.00 in0.0 mm 0.00 in0.0 mm 0.00 in0.0 mm
08:50 AM 71.4°F21.9°C 61.6°F16.4°C 71% 4.5 mph SE7.2 kmh SE 8.3 mph13.4 kmh 30.16 in1021.3 mb 0.00 in0.0 mm 0.00 in0.0 mm 0.00 in0.0 mm
08:55 AM 72.1°F22.3°C 62.2°F16.8°C 71% 3.1 mph SE5.0 kmh SE 8.3 mph13.4 kmh 30.16 in1021.3 mb 0.00 in0.0 mm 0.00 in0.0 mm 0.00 in0.0 mm
09:00 AM 73.0°F22.8°C 62.3°F16.8°C 69% 2.2 mph SE3.5 kmh SE 7.6 mph12.2 kmh 30.16 in1021.3 mb 0.00 in0.0 mm 0.00 in0.0 mm 0.00 in0.0 mm
09:05 AM 74.3°F23.5°C 63.1°F17.3°C 68% 4.5 mph SE7.2 kmh SE 6.0 mph9.7 kmh 30.17 in1021.7 mb 0.00 in0.0 mm 0.00 in0.0 mm 0.00 in0.0 mm
09:10 AM 74.8°F23.8°C 63.6°F17.6°C 68% 3.8 mph SE6.1 kmh SE 6.0 mph9.7 kmh 30.16 in1021.3 mb 0.00 in0.0 mm 0.00 in0.0 mm 0.00 in0.0 mm
09:15 AM 75.9°F24.4°C 64.2°F17.9°C 67% 3.8 mph SE6.1 kmh SE 9.2 mph14.8 kmh 30.17 in1021.7 mb 0.00 in0.0 mm 0.00 in0.0 mm 0.00 in0.0 mm
09:20 AM 77.0°F25.0°C 64.8°F18.2°C 66% 4.5 mph SE7.2 kmh SE 9.2 mph14.8 kmh 30.18 in1022.0 mb 0.00 in0.0 mm 0.00 in0.0 mm 0.00 in0.0 mm
09:25 AM 77.7°F25.4°C 65.1°F18.4°C 65% 3.8 mph SE6.1 kmh SE 9.2 mph14.8 kmh 30.18 in1022.0 mb 0.00 in0.0 mm 0.00 in0.0 mm 0.00 in0.0 mm
09:30 AM 78.4°F25.8°C 65.3°F18.5°C 64% 3.8 mph SE6.1 kmh SE 9.2 mph14.8 kmh 30.18 in1022.0 mb 0.00 in0.0 mm 0.00 in0.0 mm 0.00 in0.0 mm
09:35 AM 79.3°F26.3°C 65.7°F18.7°C 63% 5.4 mph SE8.7 kmh SE 8.3 mph13.4 kmh 30.19 in1022.4 mb 0.00 in0.0 mm 0.00 in0.0 mm 0.00 in0.0 mm
09:40 AM 80.1°F26.7°C 65.9°F18.8°C 62% 3.1 mph SE5.0 kmh SE 8.3 mph13.4 kmh 30.18 in1022.0 mb 0.00 in0.0 mm 0.00 in0.0 mm 0.00 in0.0 mm
09:45 AM 80.8°F27.1°C 66.6°F19.2°C 62% 6.0 mph SE9.7 kmh SE 8.3 mph13.4 kmh 30.18 in1022.0 mb 0.00 in0.0 mm 0.00 in0.0 mm 0.00 in0.0 mm
09:50 AM 81.3°F27.4°C 66.6°F19.2°C 61% 3.8 mph SE6.1 kmh SE 8.3 mph13.4 kmh 30.18 in1022.0 mb 0.00 in0.0 mm 0.00 in0.0 mm 0.00 in0.0 mm
09:55 AM 82.0°F27.8°C 67.3°F19.6°C 61% 5.4 mph SE8.7 kmh SE 7.6 mph12.2 kmh 30.18 in1022.0 mb 0.00 in0.0 mm 0.00 in0.0 mm 0.00 in0.0 mm
10:00 AM 82.8°F28.2°C 67.5°F19.7°C 60% 5.4 mph ESE8.7 kmh ESE 8.3 mph13.4 kmh 30.19 in1022.4 mb 0.00 in0.0 mm 0.00 in0.0 mm 0.00 in0.0 mm
10:05 AM 83.3°F28.5°C 67.5°F19.7°C 59% 4.5 mph SE7.2 kmh SE 8.3 mph13.4 kmh 30.19 in1022.4 mb 0.00 in0.0 mm 0.00 in0.0 mm 0.00 in0.0 mm
10:10 AM 83.8°F28.8°C 68.0°F20.0°C 59% 3.8 mph SE6.1 kmh SE 7.6 mph12.2 kmh 30.18 in1022.0 mb 0.00 in0.0 mm 0.00 in0.0 mm 0.00 in0.0 mm
10:15 AM 84.4°F29.1°C 68.0°F20.0°C 58% 8.3 mph SE13.4 kmh SE 10.7 mph17.2 kmh 30.19 in1022.4 mb 0.00 in0.0 mm 0.00 in0.0 mm 0.00 in0.0 mm
10:20 AM 84.6°F29.2°C 68.2°F20.1°C 58% 4.5 mph SE7.2 kmh SE 10.7 mph17.2 kmh 30.19 in1022.4 mb 0.00 in0.0 mm 0.00 in0.0 mm 0.00 in0.0 mm
10:25 AM 84.9°F29.4°C 68.6°F20.3°C 58% 4.5 mph SE7.2 kmh SE 10.7 mph17.2 kmh 30.18 in1022.0 mb 0.00 in0.0 mm 0.00 in0.0 mm 0.00 in0.0 mm
10:30 AM 85.5°F29.7°C 68.5°F20.3°C 57% 3.1 mph SE5.0 kmh SE 9.8 mph15.8 kmh 30.19 in1022.4 mb 0.00 in0.0 mm 0.00 in0.0 mm 0.00 in0.0 mm
10:35 AM 86.0°F30.0°C 69.1°F20.6°C 57% 9.2 mph SE14.8 kmh SE 12.1 mph19.5 kmh 30.18 in1022.0 mb 0.00 in0.0 mm 0.00 in0.0 mm 0.00 in0.0 mm
10:40 AM 86.0°F30.0°C 69.1°F20.6°C 57% 5.4 mph SE8.7 kmh SE 12.1 mph19.5 kmh 30.18 in1022.0 mb 0.00 in0.0 mm 0.00 in0.0 mm 0.00 in0.0 mm
10:45 AM 86.2°F30.1°C 68.7°F20.4°C 56% 9.8 mph SE15.8 kmh SE 14.5 mph23.3 kmh 30.18 in1022.0 mb 0.00 in0.0 mm 0.00 in0.0 mm 0.00 in0.0 mm
10:50 AM 86.5°F30.3°C 69.0°F20.6°C 56% 7.6 mph SE12.2 kmh SE 14.5 mph23.3 kmh 30.17 in1021.7 mb 0.00 in0.0 mm 0.00 in0.0 mm 0.00 in0.0 mm
10:55 AM 86.7°F30.4°C 69.2°F20.7°C 56% 8.3 mph SE13.4 kmh SE 14.5 mph23.3 kmh 30.17 in1021.7 mb 0.00 in0.0 mm 0.00 in0.0 mm 0.00 in0.0 mm
11:00 AM 87.1°F30.6°C 69.5°F20.8°C 56% 6.9 mph SE11.1 kmh SE 13.0 mph20.9 kmh 30.17 in1021.7 mb 0.00 in0.0 mm 0.00 in0.0 mm 0.00 in0.0 mm
11:05 AM 87.3°F30.7°C 69.2°F20.7°C 55% 5.4 mph SE8.7 kmh SE 12.1 mph19.5 kmh 30.16 in1021.3 mb 0.00 in0.0 mm 0.00 in0.0 mm 0.00 in0.0 mm
11:10 AM 87.3°F30.7°C 69.2°F20.7°C 55% 9.2 mph SE14.8 kmh SE 12.1 mph19.5 kmh 30.16 in1021.3 mb 0.00 in0.0 mm 0.00 in0.0 mm 0.00 in0.0 mm
11:15 AM 87.1°F30.6°C 69.0°F20.6°C 55% 6.0 mph SE9.7 kmh SE 12.1 mph19.5 kmh 30.16 in1021.3 mb 0.00 in0.0 mm 0.00 in0.0 mm 0.00 in0.0 mm
11:20 AM 87.3°F30.7°C 69.2°F20.7°C 55% 9.8 mph SE15.8 kmh SE 14.5 mph23.3 kmh 30.16 in1021.3 mb 0.00 in0.0 mm 0.00 in0.0 mm 0.00 in0.0 mm
11:25 AM 87.6°F30.9°C 69.5°F20.8°C 55% 5.4 mph ESE8.7 kmh ESE 14.5 mph23.3 kmh 30.16 in1021.3 mb 0.00 in0.0 mm 0.00 in0.0 mm 0.00 in0.0 mm
11:30 AM 87.6°F30.9°C 69.0°F20.6°C 54% 9.2 mph ESE14.8 kmh ESE 13.6 mph21.9 kmh 30.16 in1021.3 mb 0.00 in0.0 mm 0.00 in0.0 mm 0.00 in0.0 mm
11:35 AM 88.0°F31.1°C 69.3°F20.7°C 54% 6.9 mph ESE11.1 kmh ESE 13.0 mph20.9 kmh 30.16 in1021.3 mb 0.00 in0.0 mm 0.00 in0.0 mm 0.00 in0.0 mm
11:40 AM 87.8°F31.0°C 69.1°F20.6°C 54% 6.9 mph ESE11.1 kmh ESE 13.0 mph20.9 kmh 30.16 in1021.3 mb 0.00 in0.0 mm 0.00 in0.0 mm 0.00 in0.0 mm
11:45 AM 87.1°F30.6°C 68.5°F20.3°C 54% 8.3 mph SE13.4 kmh SE 13.6 mph21.9 kmh 30.16 in1021.3 mb 0.00 in0.0 mm 0.00 in0.0 mm 0.00 in0.0 mm
11:50 AM 86.4°F30.2°C 68.3°F20.2°C 55% 6.0 mph ESE9.7 kmh ESE 13.6 mph21.9 kmh 30.16 in1021.3 mb 0.00 in0.0 mm 0.00 in0.0 mm 0.00 in0.0 mm
11:55 AM 86.5°F30.3°C 69.0°F20.6°C 56% 7.6 mph E12.2 kmh E 13.6 mph21.9 kmh 30.16 in1021.3 mb 0.00 in0.0 mm 0.00 in0.0 mm 0.00 in0.0 mm
12:00 PM 86.9°F30.5°C 68.8°F20.4°C 55% 6.0 mph ESE9.7 kmh ESE 11.4 mph18.3 kmh 30.15 in1021.0 mb 0.00 in0.0 mm 0.00 in0.0 mm 0.00 in0.0 mm
12:05 PM 87.3°F30.7°C 69.2°F20.7°C 55% 8.3 mph SE13.4 kmh SE 12.1 mph19.5 kmh 30.15 in1021.0 mb 0.00 in0.0 mm 0.00 in0.0 mm 0.00 in0.0 mm
12:10 PM 87.8°F31.0°C 69.1°F20.6°C 54% 7.6 mph SE12.2 kmh SE 12.1 mph19.5 kmh 30.15 in1021.0 mb 0.00 in0.0 mm 0.00 in0.0 mm 0.00 in0.0 mm
12:15 PM 88.0°F31.1°C 68.8°F20.4°C 53% 9.2 mph SSE14.8 kmh SSE 11.4 mph18.3 kmh 30.14 in1020.7 mb 0.00 in0.0 mm 0.00 in0.0 mm 0.00 in0.0 mm
12:20 PM 88.0°F31.1°C 68.8°F20.4°C 53% 6.0 mph S9.7 kmh S 12.1 mph19.5 kmh 30.14 in1020.7 mb 0.00 in0.0 mm 0.00 in0.0 mm 0.00 in0.0 mm
12:25 PM 87.8°F31.0°C 68.6°F20.3°C 53% 6.0 mph S9.7 kmh S 12.1 mph19.5 kmh 30.14 in1020.7 mb 0.00 in0.0 mm 0.00 in0.0 mm 0.00 in0.0 mm
12:30 PM 87.8°F31.0°C 69.1°F20.6°C 54% 6.9 mph SE11.1 kmh SE 9.8 mph15.8 kmh 30.14 in1020.7 mb 0.00 in0.0 mm 0.00 in0.0 mm 0.00 in0.0 mm
12:35 PM 88.0°F31.1°C 68.8°F20.4°C 53% 9.8 mph SE15.8 kmh SE 13.6 mph21.9 kmh 30.14 in1020.7 mb 0.00 in0.0 mm 0.00 in0.0 mm 0.00 in0.0 mm
12:40 PM 88.0°F31.1°C 68.8°F20.4°C 53% 5.4 mph SSE8.7 kmh SSE 13.6 mph21.9 kmh 30.14 in1020.7 mb 0.00 in0.0 mm 0.00 in0.0 mm 0.00 in0.0 mm
12:45 PM 88.2°F31.2°C 68.9°F20.5°C 53% 6.0 mph SSE9.7 kmh SSE 13.0 mph20.9 kmh 30.13 in1020.3 mb 0.00 in0.0 mm 0.00 in0.0 mm 0.00 in0.0 mm
12:50 PM 87.6°F30.9°C 67.9°F19.9°C 52% 6.0 mph SE9.7 kmh SE 11.4 mph18.3 kmh 30.12 in1020.0 mb 0.00 in0.0 mm 0.00 in0.0 mm 0.00 in0.0 mm
12:55 PM 87.6°F30.9°C 68.4°F20.2°C 53% 6.0 mph SE9.7 kmh SE 11.4 mph18.3 kmh 30.12 in1020.0 mb 0.00 in0.0 mm 0.00 in0.0 mm 0.00 in0.0 mm
01:00 PM 87.6°F30.9°C 68.4°F20.2°C 53% 6.0 mph SE9.7 kmh SE 9.8 mph15.8 kmh 30.12 in1020.0 mb 0.00 in0.0 mm 0.00 in0.0 mm 0.00 in0.0 mm
01:05 PM 87.6°F30.9°C 67.9°F19.9°C 52% 5.4 mph SE8.7 kmh SE 12.1 mph19.5 kmh 30.12 in1020.0 mb 0.00 in0.0 mm 0.00 in0.0 mm 0.00 in0.0 mm
01:10 PM 87.4°F30.8°C 67.7°F19.8°C 52% 4.5 mph SE7.2 kmh SE 12.1 mph19.5 kmh 30.11 in1019.6 mb 0.00 in0.0 mm 0.00 in0.0 mm 0.00 in0.0 mm
01:15 PM 87.1°F30.6°C 67.9°F19.9°C 53% 6.9 mph SE11.1 kmh SE 11.4 mph18.3 kmh 30.11 in1019.6 mb 0.00 in0.0 mm 0.00 in0.0 mm 0.00 in0.0 mm
01:20 PM 87.1°F30.6°C 67.9°F19.9°C 53% 9.2 mph SE14.8 kmh SE 11.4 mph18.3 kmh 30.11 in1019.6 mb 0.00 in0.0 mm 0.00 in0.0 mm 0.00 in0.0 mm
01:25 PM 87.4°F30.8°C 68.3°F20.2°C 53% 6.0 mph SE9.7 kmh SE 11.4 mph18.3 kmh 30.11 in1019.6 mb 0.00 in0.0 mm 0.00 in0.0 mm 0.00 in0.0 mm
01:30 PM 87.8°F31.0°C 68.0°F20.0°C 52% 5.4 mph SE8.7 kmh SE 10.7 mph17.2 kmh 30.11 in1019.6 mb 0.00 in0.0 mm 0.00 in0.0 mm 0.00 in0.0 mm
01:35 PM 88.0°F31.1°C 68.2°F20.1°C 52% 6.9 mph SSE11.1 kmh SSE 12.1 mph19.5 kmh 30.10 in1019.3 mb 0.00 in0.0 mm 0.00 in0.0 mm 0.00 in0.0 mm
01:40 PM 88.0°F31.1°C 68.2°F20.1°C 52% 5.4 mph S8.7 kmh S 12.1 mph19.5 kmh 30.10 in1019.3 mb 0.00 in0.0 mm 0.00 in0.0 mm 0.00 in0.0 mm
01:45 PM 87.8°F31.0°C 68.0°F20.0°C 52% 7.6 mph SSE12.2 kmh SSE 11.4 mph18.3 kmh 30.10 in1019.3 mb 0.00 in0.0 mm 0.00 in0.0 mm 0.00 in0.0 mm
01:50 PM 87.1°F30.6°C 67.4°F19.7°C 52% 3.8 mph SE6.1 kmh SE 11.4 mph18.3 kmh 30.10 in1019.3 mb 0.00 in0.0 mm 0.00 in0.0 mm 0.00 in0.0 mm
01:55 PM 88.0°F31.1°C 68.2°F20.1°C 52% 8.3 mph SE13.4 kmh SE 11.4 mph18.3 kmh 30.10 in1019.3 mb 0.00 in0.0 mm 0.00 in0.0 mm 0.00 in0.0 mm
02:00 PM 89.1°F31.7°C 68.6°F20.3°C 51% 8.3 mph SE13.4 kmh SE 11.4 mph18.3 kmh 30.09 in1019.0 mb 0.00 in0.0 mm 0.00 in0.0 mm 0.00 in0.0 mm
02:05 PM 88.7°F31.5°C 67.7°F19.8°C 50% 4.5 mph SE7.2 kmh SE 16.8 mph27.0 kmh 30.09 in1019.0 mb 0.00 in0.0 mm 0.00 in0.0 mm 0.00 in0.0 mm
02:10 PM 88.2°F31.2°C 67.8°F19.9°C 51% 6.0 mph SE9.7 kmh SE 16.8 mph27.0 kmh 30.09 in1019.0 mb 0.00 in0.0 mm 0.00 in0.0 mm 0.00 in0.0 mm
02:15 PM 87.4°F30.8°C 67.7°F19.8°C 52% 2.2 mph SSE3.5 kmh SSE 10.7 mph17.2 kmh 30.10 in1019.3 mb 0.00 in0.0 mm 0.00 in0.0 mm 0.00 in0.0 mm
02:20 PM 87.4°F30.8°C 67.7°F19.8°C 52% 6.0 mph S9.7 kmh S 10.7 mph17.2 kmh 30.09 in1019.0 mb 0.00 in0.0 mm 0.00 in0.0 mm 0.00 in0.0 mm
02:25 PM 88.7°F31.5°C 68.3°F20.2°C 51% 6.9 mph SE11.1 kmh SE 10.7 mph17.2 kmh 30.09 in1019.0 mb 0.00 in0.0 mm 0.00 in0.0 mm 0.00 in0.0 mm
02:30 PM 89.6°F32.0°C 68.6°F20.3°C 50% 4.5 mph SE7.2 kmh SE 10.7 mph17.2 kmh 30.09 in1019.0 mb 0.00 in0.0 mm 0.00 in0.0 mm 0.00 in0.0 mm
02:35 PM 89.8°F32.1°C 68.7°F20.4°C 50% 8.3 mph SSE13.4 kmh SSE 9.8 mph15.8 kmh 30.09 in1019.0 mb 0.00 in0.0 mm 0.00 in0.0 mm 0.00 in0.0 mm
02:40 PM 89.8°F32.1°C 68.7°F20.4°C 50% 5.4 mph S8.7 kmh S 12.1 mph19.5 kmh 30.10 in1019.3 mb 0.00 in0.0 mm 0.00 in0.0 mm 0.00 in0.0 mm
02:45 PM 90.3°F32.4°C 69.2°F20.7°C 50% 6.0 mph SSE9.7 kmh SSE 12.1 mph19.5 kmh 30.09 in1019.0 mb 0.00 in0.0 mm 0.00 in0.0 mm 0.00 in0.0 mm
02:50 PM 91.0°F32.8°C 69.9°F21.1°C 50% 7.6 mph S12.2 kmh S 11.4 mph18.3 kmh 30.09 in1019.0 mb 0.00 in0.0 mm 0.00 in0.0 mm 0.00 in0.0 mm
02:55 PM 91.6°F33.1°C 69.2°F20.7°C 48% 7.6 mph SSW12.2 kmh SSW 14.5 mph23.3 kmh 30.09 in1019.0 mb 0.00 in0.0 mm 0.00 in0.0 mm 0.00 in0.0 mm
03:00 PM 91.6°F33.1°C 69.2°F20.7°C 48% 11.4 mph SSW18.3 kmh SSW 17.4 mph28.0 kmh 30.09 in1019.0 mb 0.00 in0.0 mm 0.00 in0.0 mm 0.00 in0.0 mm
03:05 PM 91.4°F33.0°C 69.0°F20.6°C 48% 8.3 mph SW13.4 kmh SW 17.4 mph28.0 kmh 30.09 in1019.0 mb 0.00 in0.0 mm 0.00 in0.0 mm 0.00 in0.0 mm
03:10 PM 91.0°F32.8°C 68.7°F20.4°C 48% 9.8 mph SW15.8 kmh SW 13.6 mph21.9 kmh 30.09 in1019.0 mb 0.00 in0.0 mm 0.00 in0.0 mm 0.00 in0.0 mm
03:15 PM 91.0°F32.8°C 69.3°F20.7°C 49% 4.5 mph SSW7.2 kmh SSW 15.9 mph25.6 kmh 30.09 in1019.0 mb 0.00 in0.0 mm 0.00 in0.0 mm 0.00 in0.0 mm
03:20 PM 91.0°F32.8°C 68.7°F20.4°C 48% 8.3 mph SW13.4 kmh SW 15.9 mph25.6 kmh 30.09 in1019.0 mb 0.00 in0.0 mm 0.00 in0.0 mm 0.00 in0.0 mm
03:25 PM 90.1°F32.3°C 68.5°F20.3°C 49% 9.2 mph SW14.8 kmh SW 15.9 mph25.6 kmh 30.09 in1019.0 mb 0.00 in0.0 mm 0.00 in0.0 mm 0.00 in0.0 mm
03:30 PM 90.0°F32.2°C 68.9°F20.5°C 50% 10.7 mph SW17.2 kmh SW 14.5 mph23.3 kmh 30.09 in1019.0 mb 0.00 in0.0 mm 0.00 in0.0 mm 0.00 in0.0 mm
03:35 PM 90.0°F32.2°C 68.9°F20.5°C 50% 10.7 mph SW17.2 kmh SW 14.5 mph23.3 kmh 30.09 in1019.0 mb 0.00 in0.0 mm 0.00 in0.0 mm 0.00 in0.0 mm
03:40 PM 90.1°F32.3°C 69.1°F20.6°C 50% 6.9 mph SW11.1 kmh SW 14.5 mph23.3 kmh 30.09 in1019.0 mb 0.00 in0.0 mm 0.00 in0.0 mm 0.00 in0.0 mm
03:45 PM 90.1°F32.3°C 69.1°F20.6°C 50% 3.8 mph SSW6.1 kmh SSW 13.6 mph21.9 kmh 30.09 in1019.0 mb 0.00 in0.0 mm 0.00 in0.0 mm 0.00 in0.0 mm
03:50 PM 89.6°F32.0°C 68.6°F20.3°C 50% 3.8 mph SSW6.1 kmh SSW 12.1 mph19.5 kmh 30.09 in1019.0 mb 0.00 in0.0 mm 0.00 in0.0 mm 0.00 in0.0 mm
03:55 PM 89.2°F31.8°C 68.2°F20.1°C 50% 3.1 mph SW5.0 kmh SW 8.3 mph13.4 kmh 30.09 in1019.0 mb 0.00 in0.0 mm 0.00 in0.0 mm 0.00 in0.0 mm
04:00 PM 89.2°F31.8°C 68.2°F20.1°C 50% 3.1 mph WSW5.0 kmh WSW 7.6 mph12.2 kmh 30.09 in1019.0 mb 0.00 in0.0 mm 0.00 in0.0 mm 0.00 in0.0 mm
04:05 PM 88.7°F31.5°C 68.3°F20.2°C 51% 3.8 mph W6.1 kmh W 10.7 mph17.2 kmh 30.09 in1019.0 mb 0.00 in0.0 mm 0.00 in0.0 mm 0.00 in0.0 mm
04:10 PM 88.5°F31.4°C 68.1°F20.1°C 51% 6.0 mph W9.7 kmh W 10.7 mph17.2 kmh 30.09 in1019.0 mb 0.00 in0.0 mm 0.00 in0.0 mm 0.00 in0.0 mm
04:15 PM 88.5°F31.4°C 68.1°F20.1°C 51% 6.9 mph W11.1 kmh W 11.4 mph18.3 kmh 30.09 in1019.0 mb 0.00 in0.0 mm 0.00 in0.0 mm 0.00 in0.0 mm
04:20 PM 88.3°F31.3°C 68.0°F20.0°C 51% 8.3 mph WSW13.4 kmh WSW 11.4 mph18.3 kmh 30.09 in1019.0 mb 0.00 in0.0 mm 0.00 in0.0 mm 0.00 in0.0 mm
04:25 PM 87.8°F31.0°C 67.5°F19.7°C 51% 9.2 mph SW14.8 kmh SW 11.4 mph18.3 kmh 30.09 in1019.0 mb 0.00 in0.0 mm 0.00 in0.0 mm 0.00 in0.0 mm
04:30 PM 87.1°F30.6°C 66.8°F19.3°C 51% 9.8 mph SW15.8 kmh SW 12.1 mph19.5 kmh 30.10 in1019.3 mb 0.00 in0.0 mm 0.00 in0.0 mm 0.00 in0.0 mm
04:35 PM 86.7°F30.4°C 67.0°F19.4°C 52% 6.0 mph SW9.7 kmh SW 12.1 mph19.5 kmh 30.10 in1019.3 mb 0.00 in0.0 mm 0.00 in0.0 mm 0.00 in0.0 mm
04:40 PM 86.2°F30.1°C 66.5°F19.2°C 52% 5.4 mph SW8.7 kmh SW 12.1 mph19.5 kmh 30.11 in1019.6 mb 0.00 in0.0 mm 0.00 in0.0 mm 0.00 in0.0 mm
04:45 PM 86.0°F30.0°C 66.4°F19.1°C 52% 6.9 mph WSW11.1 kmh WSW 10.7 mph17.2 kmh 30.10 in1019.3 mb 0.00 in0.0 mm 0.00 in0.0 mm 0.00 in0.0 mm
04:50 PM 85.8°F29.9°C 66.2°F19.0°C 52% 6.0 mph SW9.7 kmh SW 10.7 mph17.2 kmh 30.10 in1019.3 mb 0.00 in0.0 mm 0.00 in0.0 mm 0.00 in0.0 mm
04:55 PM 85.3°F29.6°C 65.7°F18.7°C 52% 7.6 mph SW12.2 kmh SW 10.7 mph17.2 kmh 30.10 in1019.3 mb 0.00 in0.0 mm 0.00 in0.0 mm 0.00 in0.0 mm
05:00 PM 84.4°F29.1°C 65.4°F18.6°C 53% 6.9 mph WSW11.1 kmh WSW 10.7 mph17.2 kmh 30.10 in1019.3 mb 0.00 in0.0 mm 0.00 in0.0 mm 0.00 in0.0 mm
05:05 PM 83.7°F28.7°C 64.8°F18.2°C 53% 4.5 mph WSW7.2 kmh WSW 10.7 mph17.2 kmh 30.11 in1019.6 mb 0.00 in0.0 mm 0.00 in0.0 mm 0.00 in0.0 mm
05:10 PM 83.1°F28.4°C 64.8°F18.2°C 54% 6.9 mph WSW11.1 kmh WSW 9.8 mph15.8 kmh 30.10 in1019.3 mb 0.00 in0.0 mm 0.00 in0.0 mm 0.00 in0.0 mm
05:15 PM 82.4°F28.0°C 64.1°F17.8°C 54% 4.5 mph SW7.2 kmh SW 9.8 mph15.8 kmh 30.10 in1019.3 mb 0.00 in0.0 mm 0.00 in0.0 mm 0.00 in0.0 mm
05:20 PM 82.0°F27.8°C 64.3°F17.9°C 55% 6.0 mph SW9.7 kmh SW 9.2 mph14.8 kmh 30.10 in1019.3 mb 0.00 in0.0 mm 0.00 in0.0 mm 0.00 in0.0 mm
05:25 PM 81.5°F27.5°C 64.3°F17.9°C 56% 6.0 mph SW9.7 kmh SW 7.6 mph12.2 kmh 30.10 in1019.3 mb 0.00 in0.0 mm 0.00 in0.0 mm 0.00 in0.0 mm
05:30 PM 81.0°F27.2°C 63.8°F17.7°C 56% 5.4 mph SW8.7 kmh SW 8.3 mph13.4 kmh 30.10 in1019.3 mb 0.00 in0.0 mm 0.00 in0.0 mm 0.00 in0.0 mm
05:35 PM 80.4°F26.9°C 63.8°F17.7°C 57% 5.4 mph SW8.7 kmh SW 8.3 mph13.4 kmh 30.10 in1019.3 mb 0.00 in0.0 mm 0.00 in0.0 mm 0.00 in0.0 mm
05:40 PM 79.9°F26.6°C 63.3°F17.4°C 57% 5.4 mph SW8.7 kmh SW 7.6 mph12.2 kmh 30.10 in1019.3 mb 0.00 in0.0 mm 0.00 in0.0 mm 0.00 in0.0 mm
05:45 PM 79.3°F26.3°C 63.3°F17.4°C 58% 5.4 mph SW8.7 kmh SW 6.9 mph11.1 kmh 30.11 in1019.6 mb 0.00 in0.0 mm 0.00 in0.0 mm 0.00 in0.0 mm
05:50 PM 78.8°F26.0°C 62.8°F17.1°C 58% 4.5 mph SW7.2 kmh SW 6.9 mph11.1 kmh 30.11 in1019.6 mb 0.00 in0.0 mm 0.00 in0.0 mm 0.00 in0.0 mm
05:55 PM 78.4°F25.8°C 63.0°F17.2°C 59% 5.4 mph SW8.7 kmh SW 6.9 mph11.1 kmh 30.10 in1019.3 mb 0.00 in0.0 mm 0.00 in0.0 mm 0.00 in0.0 mm
06:00 PM 77.9°F25.5°C 62.9°F17.2°C 60% 4.5 mph SW7.2 kmh SW 6.0 mph9.7 kmh 30.11 in1019.6 mb 0.00 in0.0 mm 0.00 in0.0 mm 0.00 in0.0 mm
06:05 PM 77.4°F25.2°C 62.4°F16.9°C 60% 6.0 mph SW9.7 kmh SW 7.6 mph12.2 kmh 30.11 in1019.6 mb 0.00 in0.0 mm 0.00 in0.0 mm 0.00 in0.0 mm
06:10 PM 76.8°F24.9°C 62.4°F16.9°C 61% 4.5 mph SW7.2 kmh SW 7.6 mph12.2 kmh 30.11 in1019.6 mb 0.00 in0.0 mm 0.00 in0.0 mm 0.00 in0.0 mm
06:15 PM 76.1°F24.5°C 61.7°F16.5°C 61% 3.8 mph SW6.1 kmh SW 7.6 mph12.2 kmh 30.10 in1019.3 mb 0.00 in0.0 mm 0.00 in0.0 mm 0.00 in0.0 mm
06:20 PM 75.6°F24.2°C 61.7°F16.5°C 62% 3.1 mph SW5.0 kmh SW 6.0 mph9.7 kmh 30.10 in1019.3 mb 0.00 in0.0 mm 0.00 in0.0 mm 0.00 in0.0 mm
06:25 PM 75.0°F23.9°C 61.2°F16.2°C 62% 3.8 mph SW6.1 kmh SW 5.4 mph8.7 kmh 30.10 in1019.3 mb 0.00 in0.0 mm 0.00 in0.0 mm 0.00 in0.0 mm
06:30 PM 74.7°F23.7°C 61.3°F16.3°C 63% 3.8 mph SW6.1 kmh SW 5.4 mph8.7 kmh 30.10 in1019.3 mb 0.00 in0.0 mm 0.00 in0.0 mm 0.00 in0.0 mm
06:35 PM 74.3°F23.5°C 60.9°F16.1°C 63% 4.5 mph SW7.2 kmh SW 5.4 mph8.7 kmh 30.10 in1019.3 mb 0.00 in0.0 mm 0.00 in0.0 mm 0.00 in0.0 mm
06:40 PM 73.9°F23.3°C 60.6°F15.9°C 63% 3.8 mph WSW6.1 kmh WSW 6.0 mph9.7 kmh 30.10 in1019.3 mb 0.00 in0.0 mm 0.00 in0.0 mm 0.00 in0.0 mm
06:45 PM 73.4°F23.0°C 60.5°F15.8°C 64% 4.5 mph WSW7.2 kmh WSW 6.0 mph9.7 kmh 30.11 in1019.6 mb 0.00 in0.0 mm 0.00 in0.0 mm 0.00 in0.0 mm
06:50 PM 73.2°F22.9°C 60.3°F15.7°C 64% 3.8 mph SW6.1 kmh SW 5.4 mph8.7 kmh 30.11 in1019.6 mb 0.00 in0.0 mm 0.00 in0.0 mm 0.00 in0.0 mm
06:55 PM 72.9°F22.7°C 60.0°F15.6°C 64% 3.1 mph WSW5.0 kmh WSW 5.4 mph8.7 kmh 30.11 in1019.6 mb 0.00 in0.0 mm 0.00 in0.0 mm 0.00 in0.0 mm
07:00 PM 72.5°F22.5°C 60.1°F15.6°C 65% 3.1 mph W5.0 kmh W 5.4 mph8.7 kmh 30.11 in1019.6 mb 0.00 in0.0 mm 0.00 in0.0 mm 0.00 in0.0 mm
07:05 PM 72.3°F22.4°C 59.9°F15.5°C 65% 3.8 mph WSW6.1 kmh WSW 5.4 mph8.7 kmh 30.11 in1019.6 mb 0.00 in0.0 mm 0.00 in0.0 mm 0.00 in0.0 mm
07:10 PM 72.1°F22.3°C 59.8°F15.4°C 65% 3.8 mph SW6.1 kmh SW 5.4 mph8.7 kmh 30.11 in1019.6 mb 0.00 in0.0 mm 0.00 in0.0 mm 0.00 in0.0 mm
07:15 PM 71.8°F22.1°C 59.4°F15.2°C 65% 3.1 mph WSW5.0 kmh WSW 5.4 mph8.7 kmh 30.11 in1019.6 mb 0.00 in0.0 mm 0.00 in0.0 mm 0.00 in0.0 mm
07:20 PM 71.6°F22.0°C 59.7°F15.4°C 66% 2.2 mph W3.5 kmh W 5.4 mph8.7 kmh 30.12 in1020.0 mb 0.00 in0.0 mm 0.00 in0.0 mm 0.00 in0.0 mm
07:25 PM 71.4°F21.9°C 59.5°F15.3°C 66% 3.1 mph W5.0 kmh W 4.5 mph7.2 kmh 30.12 in1020.0 mb 0.00 in0.0 mm 0.00 in0.0 mm 0.00 in0.0 mm
07:30 PM 71.1°F21.7°C 59.2°F15.1°C 66% 2.2 mph W3.5 kmh W 4.5 mph7.2 kmh 30.12 in1020.0 mb 0.00 in0.0 mm 0.00 in0.0 mm 0.00 in0.0 mm
07:35 PM 71.1°F21.7°C 59.2°F15.1°C 66% 3.1 mph W5.0 kmh W 4.5 mph7.2 kmh 30.13 in1020.3 mb 0.00 in0.0 mm 0.00 in0.0 mm 0.00 in0.0 mm
07:40 PM 70.9°F21.6°C 59.0°F15.0°C 66% 2.2 mph W3.5 kmh W 4.5 mph7.2 kmh 30.13 in1020.3 mb 0.00 in0.0 mm 0.00 in0.0 mm 0.00 in0.0 mm
07:45 PM 70.7°F21.5°C 58.8°F14.9°C 66% 1.6 mph W2.6 kmh W 4.5 mph7.2 kmh 30.13 in1020.3 mb 0.00 in0.0 mm 0.00 in0.0 mm 0.00 in0.0 mm
07:50 PM 70.3°F21.3°C 58.9°F14.9°C 67% 1.6 mph W2.6 kmh W 3.8 mph6.1 kmh 30.13 in1020.3 mb 0.00 in0.0 mm 0.00 in0.0 mm 0.00 in0.0 mm
07:55 PM 70.2°F21.2°C 58.7°F14.8°C 67% 2.2 mph W3.5 kmh W 3.8 mph6.1 kmh 30.14 in1020.7 mb 0.00 in0.0 mm 0.00 in0.0 mm 0.00 in0.0 mm
08:00 PM 70.2°F21.2°C 58.7°F14.8°C 67% 1.6 mph W2.6 kmh W 3.8 mph6.1 kmh 30.14 in1020.7 mb 0.00 in0.0 mm 0.00 in0.0 mm 0.00 in0.0 mm
08:05 PM 70.0°F21.1°C 58.5°F14.7°C 67% 2.2 mph WNW3.5 kmh WNW 3.8 mph6.1 kmh 30.14 in1020.7 mb 0.00 in0.0 mm 0.00 in0.0 mm 0.00 in0.0 mm
08:10 PM 69.6°F20.9°C 58.2°F14.6°C 67% 2.2 mph NW3.5 kmh NW 3.8 mph6.1 kmh 30.14 in1020.7 mb 0.00 in0.0 mm 0.00 in0.0 mm 0.00 in0.0 mm
08:15 PM 69.6°F20.9°C 58.6°F14.8°C 68% 2.2 mph NW3.5 kmh NW 3.8 mph6.1 kmh 30.14 in1020.7 mb 0.00 in0.0 mm 0.00 in0.0 mm 0.00 in0.0 mm
08:20 PM 69.4°F20.8°C 58.4°F14.7°C 68% 0.7 mph NW1.1 kmh NW 3.8 mph6.1 kmh 30.14 in1020.7 mb 0.00 in0.0 mm 0.00 in0.0 mm 0.00 in0.0 mm
08:25 PM 69.3°F20.7°C 58.3°F14.6°C 68% 0.7 mph NNW1.1 kmh NNW 3.8 mph6.1 kmh 30.14 in1020.7 mb 0.00 in0.0 mm 0.00 in0.0 mm 0.00 in0.0 mm
08:30 PM 69.1°F20.6°C 58.1°F14.5°C 68% 2.2 mph N3.5 kmh N 3.1 mph5.0 kmh 30.14 in1020.7 mb 0.00 in0.0 mm 0.00 in0.0 mm 0.00 in0.0 mm
08:35 PM 68.9°F20.5°C 57.9°F14.4°C 68% 1.6 mph N2.6 kmh N 3.1 mph5.0 kmh 30.15 in1021.0 mb 0.00 in0.0 mm 0.00 in0.0 mm 0.00 in0.0 mm
08:40 PM 68.9°F20.5°C 58.3°F14.6°C 69% 2.2 mph N3.5 kmh N 3.8 mph6.1 kmh 30.15 in1021.0 mb 0.00 in0.0 mm 0.00 in0.0 mm 0.00 in0.0 mm
08:45 PM 68.9°F20.5°C 58.3°F14.6°C 69% 3.1 mph N5.0 kmh N 4.5 mph7.2 kmh 30.15 in1021.0 mb 0.00 in0.0 mm 0.00 in0.0 mm 0.00 in0.0 mm
08:50 PM 68.7°F20.4°C 58.2°F14.6°C 69% 3.1 mph N5.0 kmh N 5.4 mph8.7 kmh 30.15 in1021.0 mb 0.00 in0.0 mm 0.00 in0.0 mm 0.00 in0.0 mm
08:55 PM 68.7°F20.4°C 58.6°F14.8°C 70% 3.1 mph N5.0 kmh N 5.4 mph8.7 kmh 30.15 in1021.0 mb 0.00 in0.0 mm 0.00 in0.0 mm 0.00 in0.0 mm
09:00 PM 68.7°F20.4°C 58.6°F14.8°C 70% 2.2 mph N3.5 kmh N 4.5 mph7.2 kmh 30.15 in1021.0 mb 0.00 in0.0 mm 0.00 in0.0 mm 0.00 in0.0 mm
09:05 PM 68.5°F20.3°C 58.4°F14.7°C 70% 2.2 mph N3.5 kmh N 3.8 mph6.1 kmh 30.15 in1021.0 mb 0.00 in0.0 mm 0.00 in0.0 mm 0.00 in0.0 mm
09:10 PM 68.4°F20.2°C 58.6°F14.8°C 71% 3.1 mph N5.0 kmh N 3.8 mph6.1 kmh 30.15 in1021.0 mb 0.00 in0.0 mm 0.00 in0.0 mm 0.00 in0.0 mm
09:15 PM 68.4°F20.2°C 58.6°F14.8°C 71% 2.2 mph N3.5 kmh N 4.5 mph7.2 kmh 30.16 in1021.3 mb 0.00 in0.0 mm 0.00 in0.0 mm 0.00 in0.0 mm
09:20 PM 68.2°F20.1°C 58.8°F14.9°C 72% 3.1 mph N5.0 kmh N 5.4 mph8.7 kmh 30.16 in1021.3 mb 0.00 in0.0 mm 0.00 in0.0 mm 0.00 in0.0 mm
09:25 PM 68.2°F20.1°C 58.8°F14.9°C 72% 3.1 mph N5.0 kmh N 5.4 mph8.7 kmh 30.16 in1021.3 mb 0.00 in0.0 mm 0.00 in0.0 mm 0.00 in0.0 mm
09:30 PM 68.2°F20.1°C 58.8°F14.9°C 72% 3.1 mph N5.0 kmh N 5.4 mph8.7 kmh 30.16 in1021.3 mb 0.00 in0.0 mm 0.00 in0.0 mm 0.00 in0.0 mm
09:35 PM 68.2°F20.1°C 59.2°F15.1°C 73% 3.8 mph N6.1 kmh N 5.4 mph8.7 kmh 30.16 in1021.3 mb 0.00 in0.0 mm 0.00 in0.0 mm 0.00 in0.0 mm
09:40 PM 68.2°F20.1°C 59.2°F15.1°C 73% 3.1 mph N5.0 kmh N 5.4 mph8.7 kmh 30.16 in1021.3 mb 0.00 in0.0 mm 0.00 in0.0 mm 0.00 in0.0 mm
09:45 PM 68.2°F20.1°C 59.6°F15.3°C 74% 3.8 mph N6.1 kmh N 6.9 mph11.1 kmh 30.16 in1021.3 mb 0.00 in0.0 mm 0.00 in0.0 mm 0.00 in0.0 mm
09:50 PM 68.4°F20.2°C 59.8°F15.4°C 74% 3.1 mph N5.0 kmh N 6.9 mph11.1 kmh 30.16 in1021.3 mb 0.00 in0.0 mm 0.00 in0.0 mm 0.00 in0.0 mm
09:55 PM 68.4°F20.2°C 59.8°F15.4°C 74% 3.1 mph N5.0 kmh N 5.4 mph8.7 kmh 30.16 in1021.3 mb 0.00 in0.0 mm 0.00 in0.0 mm 0.00 in0.0 mm
10:00 PM 68.5°F20.3°C 59.9°F15.5°C 74% 3.8 mph N6.1 kmh N 5.4 mph8.7 kmh 30.16 in1021.3 mb 0.00 in0.0 mm 0.00 in0.0 mm 0.00 in0.0 mm
10:05 PM 68.5°F20.3°C 60.3°F15.7°C 75% 3.1 mph N5.0 kmh N 5.4 mph8.7 kmh 30.16 in1021.3 mb 0.00 in0.0 mm 0.00 in0.0 mm 0.00 in0.0 mm
10:10 PM 68.5°F20.3°C 60.3°F15.7°C 75% 3.1 mph N5.0 kmh N 5.4 mph8.7 kmh 30.16 in1021.3 mb 0.00 in0.0 mm 0.00 in0.0 mm 0.00 in0.0 mm
10:15 PM 68.5°F20.3°C 60.3°F15.7°C 75% 3.8 mph N6.1 kmh N 5.4 mph8.7 kmh 30.17 in1021.7 mb 0.00 in0.0 mm 0.00 in0.0 mm 0.00 in0.0 mm
10:20 PM 68.4°F20.2°C 60.2°F15.7°C 75% 3.1 mph N5.0 kmh N 5.4 mph8.7 kmh 30.17 in1021.7 mb 0.00 in0.0 mm 0.00 in0.0 mm 0.00 in0.0 mm
10:25 PM 68.2°F20.1°C 60.0°F15.6°C 75% 3.1 mph N5.0 kmh N 5.4 mph8.7 kmh 30.16 in1021.3 mb 0.00 in0.0 mm 0.00 in0.0 mm 0.00 in0.0 mm
10:30 PM 68.2°F20.1°C 60.4°F15.8°C 76% 1.6 mph N2.6 kmh N 5.4 mph8.7 kmh 30.16 in1021.3 mb 0.00 in0.0 mm 0.00 in0.0 mm 0.00 in0.0 mm
10:35 PM 68.0°F20.0°C 60.2°F15.7°C 76% 0.7 mph NNE1.1 kmh NNE 4.5 mph7.2 kmh 30.16 in1021.3 mb 0.00 in0.0 mm 0.00 in0.0 mm 0.00 in0.0 mm
10:40 PM 67.8°F19.9°C 60.0°F15.6°C 76% 1.6 mph NE2.6 kmh NE 3.1 mph5.0 kmh 30.16 in1021.3 mb 0.00 in0.0 mm 0.00 in0.0 mm 0.00 in0.0 mm
10:45 PM 67.6°F19.8°C 59.8°F15.4°C 76% 2.2 mph NE3.5 kmh NE 3.1 mph5.0 kmh 30.16 in1021.3 mb 0.00 in0.0 mm 0.00 in0.0 mm 0.00 in0.0 mm
10:50 PM 67.6°F19.8°C 59.8°F15.4°C 76% 2.2 mph NE3.5 kmh NE 3.8 mph6.1 kmh 30.16 in1021.3 mb 0.00 in0.0 mm 0.00 in0.0 mm 0.00 in0.0 mm
10:55 PM 67.6°F19.8°C 59.8°F15.4°C 76% 2.2 mph NE3.5 kmh NE 3.8 mph6.1 kmh 30.16 in1021.3 mb 0.00 in0.0 mm 0.00 in0.0 mm 0.00 in0.0 mm
11:00 PM 67.6°F19.8°C 59.8°F15.4°C 76% 3.1 mph NE5.0 kmh NE 5.4 mph8.7 kmh 30.16 in1021.3 mb 0.00 in0.0 mm 0.00 in0.0 mm 0.00 in0.0 mm
11:05 PM 67.5°F19.7°C 59.7°F15.4°C 76% 1.6 mph NE2.6 kmh NE 5.4 mph8.7 kmh 30.15 in1021.0 mb 0.00 in0.0 mm 0.00 in0.0 mm 0.00 in0.0 mm
11:10 PM 67.3°F19.6°C 59.5°F15.3°C 76% 2.2 mph NE3.5 kmh NE 5.4 mph8.7 kmh 30.15 in1021.0 mb 0.00 in0.0 mm 0.00 in0.0 mm 0.00 in0.0 mm
11:15 PM 67.1°F19.5°C 59.3°F15.2°C 76% 2.2 mph NE3.5 kmh NE 3.8 mph6.1 kmh 30.15 in1021.0 mb 0.00 in0.0 mm 0.00 in0.0 mm 0.00 in0.0 mm
11:20 PM 67.1°F19.5°C 59.7°F15.4°C 77% 3.1 mph NE5.0 kmh NE 3.8 mph6.1 kmh 30.15 in1021.0 mb 0.00 in0.0 mm 0.00 in0.0 mm 0.00 in0.0 mm
11:25 PM 66.9°F19.4°C 59.5°F15.3°C 77% 2.2 mph NE3.5 kmh NE 4.5 mph7.2 kmh 30.15 in1021.0 mb 0.00 in0.0 mm 0.00 in0.0 mm 0.00 in0.0 mm
11:30 PM 66.9°F19.4°C 59.5°F15.3°C 77% 2.2 mph NE3.5 kmh NE 4.5 mph7.2 kmh 30.14 in1020.7 mb 0.00 in0.0 mm 0.00 in0.0 mm 0.00 in0.0 mm
11:35 PM 66.9°F19.4°C 59.5°F15.3°C 77% 2.2 mph NE3.5 kmh NE 3.8 mph6.1 kmh 30.14 in1020.7 mb 0.00 in0.0 mm 0.00 in0.0 mm 0.00 in0.0 mm
11:40 PM 66.6°F19.2°C 59.1°F15.1°C 77% 2.2 mph NE3.5 kmh NE 3.8 mph6.1 kmh 30.14 in1020.7 mb 0.00 in0.0 mm 0.00 in0.0 mm 0.00 in0.0 mm
11:45 PM 66.6°F19.2°C 59.1°F15.1°C 77% 2.2 mph NE3.5 kmh NE 4.5 mph7.2 kmh 30.14 in1020.7 mb 0.00 in0.0 mm 0.00 in0.0 mm 0.00 in0.0 mm
11:50 PM 66.6°F19.2°C 59.1°F15.1°C 77% 1.6 mph NE2.6 kmh NE 4.5 mph7.2 kmh 30.14 in1020.7 mb 0.00 in0.0 mm 0.00 in0.0 mm 0.00 in0.0 mm
11:55 PM 66.6°F19.2°C 59.5°F15.3°C 78% 1.6 mph NE2.6 kmh NE 3.8 mph6.1 kmh 30.14 in1020.7 mb 0.00 in0.0 mm 0.00 in0.0 mm 0.00 in0.0 mm